createdAt,value
2017-11-09T00:00:29.493Z,0
2017-11-09T00:01:10.028Z,0
2017-11-09T00:01:50.569Z,0
2017-11-09T00:02:31.079Z,0
2017-11-09T00:03:11.611Z,0
2017-11-09T00:03:52.129Z,0
2017-11-09T00:04:32.666Z,0
2017-11-09T00:05:13.188Z,0
2017-11-09T00:05:53.715Z,0
2017-11-09T00:06:34.246Z,0
2017-11-09T00:07:14.786Z,0
2017-11-09T00:07:55.324Z,0
2017-11-09T00:08:35.857Z,0
2017-11-09T00:09:16.389Z,0
2017-11-09T00:09:56.922Z,0
2017-11-09T00:10:37.438Z,0
2017-11-09T00:11:17.976Z,0
2017-11-09T00:11:58.491Z,0
2017-11-09T00:12:39.030Z,0
2017-11-09T00:13:19.546Z,0
2017-11-09T00:14:00.074Z,0
2017-11-09T00:14:40.607Z,0
2017-11-09T00:15:21.140Z,0
2017-11-09T00:16:01.673Z,0
2017-11-09T00:16:42.189Z,0
2017-11-09T00:17:22.727Z,0
2017-11-09T00:18:03.258Z,0
2017-11-09T00:18:43.791Z,0
2017-11-09T00:19:24.315Z,0
2017-11-09T00:20:04.849Z,0
2017-11-09T00:20:45.382Z,0
2017-11-09T00:21:25.924Z,0
2017-11-09T00:22:06.484Z,0
2017-11-09T00:22:46.991Z,0
2017-11-09T00:23:27.573Z,0
2017-11-09T00:24:08.099Z,0
2017-11-09T00:24:48.629Z,0
2017-11-09T00:25:29.159Z,0
2017-11-09T00:26:09.688Z,0
2017-11-09T00:26:50.226Z,0
2017-11-09T00:27:30.751Z,0
2017-11-09T00:28:11.285Z,0
2017-11-09T00:28:51.810Z,0
2017-11-09T00:29:32.339Z,0
2017-11-09T00:30:12.863Z,0
2017-11-09T00:30:53.407Z,0
2017-11-09T00:31:33.935Z,0
2017-11-09T00:32:14.450Z,0
2017-11-09T00:32:54.981Z,0
2017-11-09T00:33:35.516Z,0
2017-11-09T00:34:16.052Z,0
2017-11-09T00:34:56.576Z,0
2017-11-09T00:35:37.119Z,0
2017-11-09T00:36:17.642Z,0
2017-11-09T00:36:58.178Z,0
2017-11-09T00:37:38.707Z,0
2017-11-09T00:38:19.241Z,0
2017-11-09T00:38:59.767Z,0
2017-11-09T00:39:40.306Z,0
2017-11-09T00:40:20.843Z,0
2017-11-09T00:41:01.378Z,0
2017-11-09T00:41:41.910Z,0
2017-11-09T00:42:22.443Z,0
2017-11-09T00:43:02.973Z,0
2017-11-09T00:43:43.511Z,0
2017-11-09T00:44:24.036Z,0
2017-11-09T00:45:04.572Z,0
2017-11-09T00:45:45.095Z,0
2017-11-09T00:46:25.618Z,0
2017-11-09T00:47:06.152Z,0
2017-11-09T00:47:46.689Z,0
2017-11-09T00:48:27.224Z,0
2017-11-09T00:49:07.762Z,0
2017-11-09T00:49:48.297Z,0
2017-11-09T00:50:28.831Z,0
2017-11-09T00:51:09.352Z,0
2017-11-09T00:51:49.884Z,0
2017-11-09T00:52:30.413Z,0
2017-11-09T00:53:10.938Z,0
2017-11-09T00:53:51.476Z,0
2017-11-09T00:54:31.994Z,0
2017-11-09T00:55:12.516Z,0
2017-11-09T00:55:53.030Z,0
2017-11-09T00:56:33.544Z,0
2017-11-09T00:57:14.069Z,0
2017-11-09T00:57:54.602Z,0
2017-11-09T00:58:35.124Z,0
2017-11-09T00:59:15.661Z,0
2017-11-09T00:59:56.197Z,0
2017-11-09T01:00:36.720Z,0
2017-11-09T01:01:17.249Z,0
2017-11-09T01:01:57.780Z,0
2017-11-09T01:02:38.312Z,0
2017-11-09T01:03:18.849Z,0
2017-11-09T01:03:59.376Z,0
2017-11-09T01:04:39.892Z,0
2017-11-09T01:05:20.422Z,0
2017-11-09T01:06:00.950Z,0
2017-11-09T01:06:41.487Z,0
2017-11-09T01:07:22.024Z,0
2017-11-09T01:08:02.553Z,0
2017-11-09T01:08:43.071Z,0
2017-11-09T01:09:23.610Z,0
2017-11-09T01:10:04.147Z,0
2017-11-09T01:10:44.669Z,0
2017-11-09T01:11:25.184Z,0
2017-11-09T01:12:05.705Z,0
2017-11-09T01:12:46.234Z,0
2017-11-09T01:13:26.769Z,0
2017-11-09T01:14:07.309Z,0
2017-11-09T01:14:47.839Z,0
2017-11-09T01:15:28.363Z,0
2017-11-09T01:16:08.897Z,0
2017-11-09T01:16:49.427Z,0
2017-11-09T01:17:29.998Z,0
2017-11-09T01:18:10.542Z,0
2017-11-09T01:18:51.062Z,0
2017-11-09T01:19:31.597Z,0
2017-11-09T01:20:12.133Z,0
2017-11-09T01:20:52.668Z,0
2017-11-09T01:21:33.191Z,0
2017-11-09T01:22:13.736Z,0
2017-11-09T01:22:54.271Z,0
2017-11-09T01:23:34.795Z,0
2017-11-09T01:24:15.324Z,0
2017-11-09T01:24:55.891Z,0
2017-11-09T01:25:36.446Z,0
2017-11-09T01:26:16.970Z,0
2017-11-09T01:26:57.494Z,0
2017-11-09T01:27:38.029Z,0
2017-11-09T01:28:18.561Z,0
2017-11-09T01:28:59.099Z,0
2017-11-09T01:29:39.628Z,0
2017-11-09T01:30:20.163Z,0
2017-11-09T01:31:00.698Z,0
2017-11-09T01:31:41.221Z,0
2017-11-09T01:32:21.743Z,0
2017-11-09T01:33:02.279Z,0
2017-11-09T01:33:42.808Z,0
2017-11-09T01:34:23.342Z,0
2017-11-09T01:35:03.873Z,0
2017-11-09T01:35:44.396Z,0
2017-11-09T01:36:24.929Z,0
2017-11-09T01:37:05.465Z,0
2017-11-09T01:37:45.990Z,0
2017-11-09T01:38:26.518Z,0
2017-11-09T01:39:07.046Z,0
2017-11-09T01:39:47.588Z,0
2017-11-09T01:40:28.101Z,0
2017-11-09T01:41:08.632Z,0
2017-11-09T01:41:49.168Z,0
2017-11-09T01:42:29.724Z,0
2017-11-09T01:43:10.227Z,0
2017-11-09T01:43:50.751Z,0
2017-11-09T01:44:31.282Z,0
2017-11-09T01:45:11.807Z,0
2017-11-09T01:45:52.341Z,0
2017-11-09T01:46:32.877Z,0
2017-11-09T01:47:13.409Z,0
2017-11-09T01:47:53.952Z,0
2017-11-09T01:48:34.480Z,0
2017-11-09T01:49:15.005Z,0
2017-11-09T01:49:55.536Z,0
2017-11-09T01:50:36.072Z,0
2017-11-09T01:51:16.604Z,0
2017-11-09T01:51:57.127Z,0
2017-11-09T01:52:37.653Z,0
2017-11-09T01:53:18.180Z,0
2017-11-09T01:53:58.706Z,0
2017-11-09T01:54:39.254Z,0
2017-11-09T01:55:19.763Z,0
2017-11-09T01:56:00.293Z,0
2017-11-09T01:56:40.818Z,0
2017-11-09T01:57:21.355Z,0
2017-11-09T01:58:01.886Z,0
2017-11-09T01:58:42.403Z,0
2017-11-09T01:59:22.912Z,0
2017-11-09T02:00:03.431Z,0
2017-11-09T02:00:43.991Z,0
2017-11-09T02:01:24.520Z,0
2017-11-09T02:02:05.050Z,0
2017-11-09T02:02:45.583Z,0
2017-11-09T02:03:26.110Z,0
2017-11-09T02:04:06.639Z,0
2017-11-09T02:04:47.169Z,0
2017-11-09T02:05:27.705Z,0
2017-11-09T02:06:08.223Z,0
2017-11-09T02:06:48.761Z,0
2017-11-09T02:07:29.301Z,0
2017-11-09T02:08:09.839Z,0
2017-11-09T02:08:50.360Z,0
2017-11-09T02:09:30.900Z,0
2017-11-09T02:10:11.433Z,0
2017-11-09T02:10:51.963Z,0
2017-11-09T02:11:32.506Z,0
2017-11-09T02:12:13.029Z,0
2017-11-09T02:12:53.552Z,0
2017-11-09T02:13:34.077Z,0
2017-11-09T02:14:14.598Z,0
2017-11-09T02:14:55.116Z,0
2017-11-09T02:15:35.654Z,0
2017-11-09T02:16:16.185Z,0
2017-11-09T02:16:56.719Z,0
2017-11-09T02:17:37.267Z,0
2017-11-09T02:18:17.776Z,0
2017-11-09T02:18:58.305Z,0
2017-11-09T02:19:38.864Z,0
2017-11-09T02:20:19.395Z,0
2017-11-09T02:20:59.931Z,0
2017-11-09T02:21:40.453Z,0
2017-11-09T02:22:20.975Z,0
2017-11-09T02:23:01.508Z,0
2017-11-09T02:23:42.031Z,0
2017-11-09T02:24:22.569Z,0
2017-11-09T02:25:03.102Z,0
2017-11-09T02:25:43.633Z,0
2017-11-09T02:26:24.169Z,0
2017-11-09T02:27:04.693Z,0
2017-11-09T02:27:45.211Z,0
2017-11-09T02:28:25.745Z,0
2017-11-09T02:29:06.277Z,0
2017-11-09T02:29:46.814Z,0
2017-11-09T02:30:27.339Z,0
2017-11-09T02:31:07.871Z,0
2017-11-09T02:31:48.402Z,0
2017-11-09T02:32:28.923Z,0
2017-11-09T02:33:09.459Z,0
2017-11-09T02:33:49.987Z,0
2017-11-09T02:34:30.518Z,0
2017-11-09T02:35:11.038Z,0
2017-11-09T02:35:51.560Z,0
2017-11-09T02:36:32.082Z,0
2017-11-09T02:37:12.611Z,0
2017-11-09T02:37:53.140Z,0
2017-11-09T02:38:33.674Z,0
2017-11-09T02:39:14.197Z,0
2017-11-09T02:39:54.753Z,0
2017-11-09T02:40:35.266Z,0
2017-11-09T02:41:15.773Z,0
2017-11-09T02:41:56.318Z,0
2017-11-09T02:42:36.819Z,0
2017-11-09T02:43:17.349Z,0
2017-11-09T02:43:57.880Z,0
2017-11-09T02:44:38.407Z,0
2017-11-09T02:45:18.939Z,0
2017-11-09T02:45:59.478Z,0
2017-11-09T02:46:39.995Z,0
2017-11-09T02:47:20.521Z,0
2017-11-09T02:48:01.058Z,0
2017-11-09T02:48:41.584Z,0
2017-11-09T02:49:22.111Z,0
2017-11-09T02:50:02.632Z,0
2017-11-09T02:50:43.176Z,0
2017-11-09T02:51:23.708Z,0
2017-11-09T02:52:04.238Z,0
2017-11-09T02:52:44.768Z,0
2017-11-09T02:53:25.344Z,0
2017-11-09T02:54:12.442Z,0
2017-11-09T02:54:52.975Z,0
2017-11-09T02:55:33.519Z,0
2017-11-09T02:56:14.035Z,0
2017-11-09T02:56:54.571Z,0
2017-11-09T02:57:35.104Z,0
2017-11-09T02:58:15.632Z,0
2017-11-09T02:58:56.164Z,0
2017-11-09T02:59:36.707Z,0
2017-11-09T03:00:17.240Z,0
2017-11-09T03:00:57.764Z,0
2017-11-09T03:01:38.293Z,0
2017-11-09T03:02:18.829Z,0
2017-11-09T03:02:59.363Z,0
2017-11-09T03:03:39.897Z,0
2017-11-09T03:04:20.436Z,0
2017-11-09T03:05:00.962Z,0
2017-11-09T03:05:41.496Z,0
2017-11-09T03:06:22.032Z,0
2017-11-09T03:07:02.556Z,0
2017-11-09T03:07:43.099Z,0
2017-11-09T03:08:23.628Z,0
2017-11-09T03:09:04.156Z,0
2017-11-09T03:09:44.690Z,0
2017-11-09T03:10:25.237Z,0
2017-11-09T03:11:05.764Z,0
2017-11-09T03:11:46.299Z,0
2017-11-09T03:12:26.841Z,0
2017-11-09T03:13:07.377Z,0
2017-11-09T03:13:47.936Z,0
2017-11-09T03:14:28.440Z,0
2017-11-09T03:15:08.982Z,0
2017-11-09T03:15:49.512Z,0
2017-11-09T03:16:30.053Z,0
2017-11-09T03:17:10.597Z,0
2017-11-09T03:17:51.122Z,0
2017-11-09T03:18:31.666Z,0
2017-11-09T03:19:12.192Z,0
2017-11-09T03:19:52.720Z,0
2017-11-09T03:20:33.262Z,0
2017-11-09T03:21:13.797Z,0
2017-11-09T03:21:54.338Z,0
2017-11-09T03:22:34.878Z,0
2017-11-09T03:23:15.404Z,0
2017-11-09T03:23:55.936Z,0
2017-11-09T03:24:36.469Z,0
2017-11-09T03:25:17.007Z,0
2017-11-09T03:25:57.540Z,0
2017-11-09T03:26:38.081Z,0
2017-11-09T03:27:18.613Z,0
2017-11-09T03:27:59.125Z,0
2017-11-09T03:28:39.665Z,0
2017-11-09T03:29:20.195Z,0
2017-11-09T03:30:00.743Z,0
2017-11-09T03:30:41.402Z,0
2017-11-09T03:31:21.947Z,0
2017-11-09T03:32:02.496Z,0
2017-11-09T03:32:42.992Z,0
2017-11-09T03:33:23.511Z,0
2017-11-09T03:34:04.043Z,0
2017-11-09T03:34:44.572Z,0
2017-11-09T03:35:25.125Z,0
2017-11-09T03:36:05.640Z,0
2017-11-09T03:36:46.169Z,0
2017-11-09T03:37:26.706Z,0
2017-11-09T03:38:07.240Z,0
2017-11-09T03:38:47.774Z,0
2017-11-09T03:39:28.326Z,0
2017-11-09T03:40:08.849Z,0
2017-11-09T03:40:49.382Z,0
2017-11-09T03:41:29.921Z,0
2017-11-09T03:42:10.434Z,0
2017-11-09T03:42:50.973Z,0
2017-11-09T03:43:31.509Z,0
2017-11-09T03:44:12.037Z,0
2017-11-09T03:44:52.570Z,0
2017-11-09T03:45:33.104Z,0
2017-11-09T03:46:13.637Z,0
2017-11-09T03:46:54.159Z,0
2017-11-09T03:47:34.685Z,0
2017-11-09T03:48:15.237Z,0
2017-11-09T03:48:55.761Z,0
2017-11-09T03:49:36.302Z,0
2017-11-09T03:50:16.829Z,0
2017-11-09T03:50:57.356Z,0
2017-11-09T03:51:37.889Z,0
2017-11-09T03:52:18.421Z,0
2017-11-09T03:52:58.944Z,0
2017-11-09T03:53:39.542Z,0
2017-11-09T03:54:20.078Z,0
2017-11-09T03:55:00.620Z,0
2017-11-09T03:55:41.156Z,0
2017-11-09T03:56:21.688Z,0
2017-11-09T03:57:02.228Z,0
2017-11-09T03:57:42.746Z,0
2017-11-09T03:58:23.284Z,0
2017-11-09T03:59:03.811Z,0
2017-11-09T03:59:44.349Z,0
2017-11-09T04:00:24.877Z,0
2017-11-09T04:01:05.403Z,0
2017-11-09T04:01:45.950Z,0
2017-11-09T04:02:26.485Z,0
2017-11-09T04:03:07.000Z,0
2017-11-09T04:03:47.527Z,0
2017-11-09T04:04:28.065Z,0
2017-11-09T04:05:08.594Z,0
2017-11-09T04:05:49.113Z,0
2017-11-09T04:06:29.649Z,0
2017-11-09T04:07:10.167Z,0
2017-11-09T04:07:50.707Z,0
2017-11-09T04:08:31.238Z,0
2017-11-09T04:09:11.772Z,0
2017-11-09T04:09:52.303Z,0
2017-11-09T04:10:32.840Z,0
2017-11-09T04:11:13.371Z,0
2017-11-09T04:11:53.904Z,0
2017-11-09T04:12:34.441Z,0
2017-11-09T04:13:14.981Z,0
2017-11-09T04:13:55.506Z,0
2017-11-09T04:14:36.014Z,0
2017-11-09T04:15:16.553Z,0
2017-11-09T04:15:57.098Z,0
2017-11-09T04:16:37.625Z,0
2017-11-09T04:17:18.161Z,0
2017-11-09T04:17:58.678Z,0
2017-11-09T04:18:39.204Z,0
2017-11-09T04:19:19.733Z,0
2017-11-09T04:20:00.260Z,0
2017-11-09T04:20:40.788Z,0
2017-11-09T04:21:21.306Z,0
2017-11-09T04:22:01.839Z,0
2017-11-09T04:22:42.385Z,0
2017-11-09T04:23:22.906Z,0
2017-11-09T04:24:03.430Z,0
2017-11-09T04:24:43.951Z,0
2017-11-09T04:25:24.476Z,0
2017-11-09T04:26:05.012Z,0
2017-11-09T04:26:45.968Z,0
2017-11-09T04:27:26.561Z,0
2017-11-09T04:28:07.101Z,0
2017-11-09T04:28:47.627Z,0
2017-11-09T04:29:28.169Z,0
2017-11-09T04:30:08.713Z,0
2017-11-09T04:30:49.236Z,0
2017-11-09T04:31:29.774Z,0
2017-11-09T04:32:10.315Z,0
2017-11-09T04:32:50.849Z,0
2017-11-09T04:33:31.385Z,0
2017-11-09T04:34:11.931Z,0
2017-11-09T04:34:52.469Z,0
2017-11-09T04:35:32.984Z,0
2017-11-09T04:36:13.517Z,0
2017-11-09T04:36:54.050Z,0
2017-11-09T04:37:34.584Z,0
2017-11-09T04:38:15.125Z,0
2017-11-09T04:38:55.635Z,0
2017-11-09T04:39:36.181Z,0
2017-11-09T04:40:16.720Z,0
2017-11-09T04:40:57.238Z,0
2017-11-09T04:41:37.744Z,0
2017-11-09T04:42:18.276Z,0
2017-11-09T04:42:58.812Z,0
2017-11-09T04:43:39.325Z,0
2017-11-09T04:44:19.856Z,0
2017-11-09T04:45:00.379Z,0
2017-11-09T04:45:40.900Z,0
2017-11-09T04:46:21.437Z,0
2017-11-09T04:47:01.955Z,0
2017-11-09T04:47:42.479Z,0
2017-11-09T04:48:23.015Z,0
2017-11-09T04:49:03.540Z,0
2017-11-09T04:49:44.079Z,0
2017-11-09T04:50:24.593Z,0
2017-11-09T04:51:05.127Z,0
2017-11-09T04:51:45.662Z,0
2017-11-09T04:52:26.163Z,0
2017-11-09T04:53:06.700Z,0
2017-11-09T04:53:47.241Z,0
2017-11-09T04:54:27.777Z,0
2017-11-09T04:55:08.314Z,0
2017-11-09T04:55:48.881Z,0
2017-11-09T04:56:29.415Z,0
2017-11-09T04:57:09.967Z,0
2017-11-09T04:57:50.444Z,0
2017-11-09T04:58:30.981Z,0
2017-11-09T04:59:11.510Z,0
2017-11-09T04:59:52.026Z,0
2017-11-09T05:00:32.553Z,0
2017-11-09T05:01:13.086Z,0
2017-11-09T05:01:53.598Z,0
2017-11-09T05:02:34.127Z,0
2017-11-09T05:03:14.708Z,0
2017-11-09T05:03:55.254Z,0
2017-11-09T05:04:35.758Z,0
2017-11-09T05:05:16.273Z,0
2017-11-09T05:05:56.804Z,0
2017-11-09T05:06:37.360Z,0
2017-11-09T05:07:17.909Z,0
2017-11-09T05:07:58.463Z,0
2017-11-09T05:08:38.993Z,0
2017-11-09T05:09:19.524Z,0
2017-11-09T05:10:00.007Z,0
2017-11-09T05:10:40.571Z,0
2017-11-09T05:11:21.119Z,0
2017-11-09T05:12:01.606Z,0
2017-11-09T05:12:42.172Z,0
2017-11-09T05:13:22.760Z,0
2017-11-09T05:14:03.189Z,0
2017-11-09T05:14:43.759Z,0
2017-11-09T05:15:24.290Z,0
2017-11-09T05:16:04.788Z,0
2017-11-09T05:16:45.333Z,0
2017-11-09T05:17:25.875Z,0
2017-11-09T05:18:06.386Z,0
2017-11-09T05:18:46.925Z,0
2017-11-09T05:19:27.442Z,0
2017-11-09T05:20:07.996Z,0
2017-11-09T05:20:48.528Z,0
2017-11-09T05:21:29.064Z,0
2017-11-09T05:22:09.597Z,0
2017-11-09T05:22:50.122Z,0
2017-11-09T05:23:30.662Z,0
2017-11-09T05:24:11.181Z,0
2017-11-09T05:24:52.684Z,0
2017-11-09T05:25:33.238Z,0
2017-11-09T05:26:13.795Z,0
2017-11-09T05:26:54.313Z,0
2017-11-09T05:27:34.864Z,0
2017-11-09T05:28:15.351Z,0
2017-11-09T05:28:55.876Z,0
2017-11-09T05:29:36.399Z,0
2017-11-09T05:30:17.657Z,0
2017-11-09T05:30:58.204Z,0
2017-11-09T05:31:38.728Z,0
2017-11-09T05:32:19.259Z,0
2017-11-09T05:32:59.886Z,0
2017-11-09T05:33:40.417Z,0
2017-11-09T05:34:20.922Z,0
2017-11-09T05:35:01.440Z,0
2017-11-09T05:35:41.985Z,0
2017-11-09T05:36:22.490Z,0
2017-11-09T05:37:03.000Z,0
2017-11-09T05:37:43.521Z,0
2017-11-09T05:38:24.071Z,0
2017-11-09T05:39:04.593Z,0
2017-11-09T05:39:45.113Z,0
2017-11-09T05:40:25.650Z,0
2017-11-09T05:41:06.182Z,0
2017-11-09T05:41:46.725Z,0
2017-11-09T05:42:27.248Z,0
2017-11-09T05:43:07.775Z,0
2017-11-09T05:43:48.298Z,0
2017-11-09T05:44:28.827Z,0
2017-11-09T05:45:09.370Z,0
2017-11-09T05:45:49.897Z,0
2017-11-09T05:46:30.423Z,0
2017-11-09T05:47:10.955Z,0
2017-11-09T05:47:51.468Z,0
2017-11-09T05:48:31.997Z,0
2017-11-09T05:49:12.526Z,0
2017-11-09T05:49:53.068Z,0
2017-11-09T05:50:33.585Z,0
2017-11-09T05:51:14.133Z,0
2017-11-09T05:51:54.659Z,0
2017-11-09T05:54:34.328Z,0
2017-11-09T05:55:14.843Z,0
2017-11-09T05:55:55.476Z,0
2017-11-09T05:56:36.006Z,0
2017-11-09T05:57:16.533Z,0
2017-11-09T05:57:57.054Z,0
2017-11-09T05:58:37.597Z,0
2017-11-09T05:59:18.118Z,0
2017-11-09T05:59:58.641Z,0
2017-11-09T06:00:39.173Z,0
2017-11-09T06:01:19.703Z,0
2017-11-09T06:02:00.259Z,0
2017-11-09T06:02:40.769Z,0
2017-11-09T06:03:21.304Z,0
2017-11-09T06:04:01.834Z,0
2017-11-09T06:04:42.362Z,0
2017-11-09T06:05:22.911Z,0
2017-11-09T06:06:03.430Z,0
2017-11-09T06:06:43.964Z,0
2017-11-09T06:07:24.506Z,0
2017-11-09T06:08:05.007Z,0
2017-11-09T06:08:45.530Z,0
2017-11-09T06:09:26.031Z,0
2017-11-09T06:10:06.560Z,0
2017-11-09T06:10:47.063Z,0
2017-11-09T06:11:27.593Z,0
2017-11-09T06:12:08.128Z,0
2017-11-09T06:12:48.662Z,0
2017-11-09T06:13:29.191Z,0
2017-11-09T06:14:09.710Z,0
2017-11-09T06:14:50.249Z,0
2017-11-09T06:15:30.903Z,0
2017-11-09T06:16:11.443Z,0
2017-11-09T06:16:51.952Z,0
2017-11-09T06:17:32.481Z,0
2017-11-09T06:18:13.011Z,4
2017-11-09T06:18:53.544Z,0
2017-11-09T06:19:34.083Z,0
2017-11-09T06:20:14.599Z,0
2017-11-09T06:20:55.121Z,0
2017-11-09T06:21:35.680Z,4
2017-11-09T06:22:16.223Z,4
2017-11-09T06:22:56.735Z,0
2017-11-09T06:23:37.248Z,0
2017-11-09T06:24:17.780Z,4
2017-11-09T06:24:58.309Z,4
2017-11-09T06:25:38.845Z,4
2017-11-09T06:26:19.366Z,4
2017-11-09T06:26:59.891Z,4
2017-11-09T06:27:40.501Z,4
2017-11-09T06:28:21.022Z,8
2017-11-09T06:29:01.584Z,8
2017-11-09T06:29:42.068Z,8
2017-11-09T06:30:22.593Z,8
2017-11-09T06:31:03.117Z,4
2017-11-09T06:31:43.638Z,8
2017-11-09T06:32:24.160Z,8
2017-11-09T06:33:04.689Z,12
2017-11-09T06:33:45.233Z,8
2017-11-09T06:34:25.764Z,8
2017-11-09T06:35:06.284Z,12
2017-11-09T06:35:46.796Z,12
2017-11-09T06:36:27.331Z,12
2017-11-09T06:37:07.830Z,16
2017-11-09T06:37:48.355Z,12
2017-11-09T06:38:28.886Z,20
2017-11-09T06:39:09.420Z,16
2017-11-09T06:39:49.941Z,16
2017-11-09T06:40:30.517Z,16
2017-11-09T06:41:11.045Z,20
2017-11-09T06:41:51.545Z,24
2017-11-09T06:42:32.077Z,24
2017-11-09T06:43:12.606Z,24
2017-11-09T06:43:53.133Z,28
2017-11-09T06:44:33.663Z,32
2017-11-09T06:45:14.190Z,32
2017-11-09T06:45:54.720Z,32
2017-11-09T06:46:35.254Z,32
2017-11-09T06:47:15.786Z,40
2017-11-09T06:47:56.311Z,36
2017-11-09T06:48:36.844Z,40
2017-11-09T06:49:17.369Z,40
2017-11-09T06:49:57.922Z,44
2017-11-09T06:50:38.406Z,44
2017-11-09T06:51:18.936Z,44
2017-11-09T06:51:59.468Z,44
2017-11-09T06:52:39.993Z,48
2017-11-09T06:53:20.501Z,52
2017-11-09T06:54:01.029Z,56
2017-11-09T06:54:41.553Z,60
2017-11-09T06:55:22.114Z,60
2017-11-09T06:56:02.668Z,60
2017-11-09T06:56:43.192Z,60
2017-11-09T06:57:23.733Z,60
2017-11-09T06:58:04.248Z,60
2017-11-09T06:58:44.785Z,60
2017-11-09T06:59:25.311Z,60
2017-11-09T07:00:05.839Z,68
2017-11-09T07:00:46.387Z,64
2017-11-09T07:01:26.923Z,72
2017-11-09T07:02:07.467Z,72
2017-11-09T07:02:47.989Z,72
2017-11-09T07:03:28.517Z,72
2017-11-09T07:04:09.046Z,76
2017-11-09T07:04:49.581Z,80
2017-11-09T07:05:30.111Z,88
2017-11-09T07:06:10.656Z,100
2017-11-09T07:06:51.144Z,104
2017-11-09T07:07:31.656Z,96
2017-11-09T07:08:12.179Z,100
2017-11-09T07:08:52.700Z,108
2017-11-09T07:09:33.209Z,112
2017-11-09T07:10:13.729Z,128
2017-11-09T07:10:54.261Z,140
2017-11-09T07:11:34.799Z,144
2017-11-09T07:12:15.332Z,152
2017-11-09T07:12:55.870Z,148
2017-11-09T07:13:36.409Z,140
2017-11-09T07:14:16.933Z,140
2017-11-09T07:14:57.460Z,148
2017-11-09T07:15:38.020Z,148
2017-11-09T07:16:18.552Z,144
2017-11-09T07:16:59.085Z,132
2017-11-09T07:17:39.615Z,124
2017-11-09T07:18:20.140Z,124
2017-11-09T07:19:00.643Z,120
2017-11-09T07:19:41.180Z,112
2017-11-09T07:20:21.706Z,104
2017-11-09T07:21:02.224Z,108
2017-11-09T07:21:42.755Z,108
2017-11-09T07:22:23.279Z,112
2017-11-09T07:23:03.783Z,104
2017-11-09T07:23:44.355Z,96
2017-11-09T07:24:24.868Z,84
2017-11-09T07:25:05.391Z,76
2017-11-09T07:25:45.926Z,72
2017-11-09T07:26:26.434Z,80
2017-11-09T07:27:06.960Z,80
2017-11-09T07:27:47.483Z,92
2017-11-09T07:28:28.039Z,96
2017-11-09T07:29:08.561Z,104
2017-11-09T07:29:49.069Z,92
2017-11-09T07:30:29.620Z,76
2017-11-09T07:31:10.136Z,76
2017-11-09T07:31:50.676Z,72
2017-11-09T07:32:31.210Z,64
2017-11-09T07:33:11.724Z,64
2017-11-09T07:33:52.271Z,60
2017-11-09T07:34:32.805Z,72
2017-11-09T07:35:13.332Z,88
2017-11-09T07:35:53.878Z,108
2017-11-09T07:36:34.407Z,116
2017-11-09T07:37:14.947Z,124
2017-11-09T07:37:55.480Z,132
2017-11-09T07:38:36.023Z,140
2017-11-09T07:39:16.568Z,148
2017-11-09T07:39:57.166Z,152
2017-11-09T07:40:37.694Z,152
2017-11-09T07:41:18.232Z,152
2017-11-09T07:41:58.741Z,144
2017-11-09T07:42:39.271Z,132
2017-11-09T07:43:19.785Z,124
2017-11-09T07:44:00.319Z,120
2017-11-09T07:44:40.834Z,124
2017-11-09T07:45:21.358Z,120
2017-11-09T07:46:01.884Z,120
2017-11-09T07:46:42.425Z,136
2017-11-09T07:47:22.945Z,156
2017-11-09T07:48:03.474Z,184
2017-11-09T07:48:43.997Z,196
2017-11-09T07:49:24.535Z,180
2017-11-09T07:50:05.063Z,168
2017-11-09T07:50:45.580Z,164
2017-11-09T07:51:26.099Z,176
2017-11-09T07:52:06.629Z,196
2017-11-09T07:52:47.142Z,216
2017-11-09T07:53:27.686Z,228
2017-11-09T07:54:08.219Z,248
2017-11-09T07:54:48.737Z,224
2017-11-09T07:55:29.267Z,196
2017-11-09T07:56:09.793Z,196
2017-11-09T07:56:50.319Z,208
2017-11-09T07:57:30.853Z,208
2017-11-09T07:58:11.371Z,208
2017-11-09T07:58:51.896Z,220
2017-11-09T07:59:32.421Z,228
2017-11-09T08:00:12.929Z,236
2017-11-09T08:00:53.446Z,232
2017-11-09T08:01:33.955Z,216
2017-11-09T08:02:14.480Z,216
2017-11-09T08:02:55.004Z,204
2017-11-09T08:03:35.520Z,232
2017-11-09T08:04:16.036Z,252
2017-11-09T08:04:56.538Z,272
2017-11-09T08:05:37.074Z,296
2017-11-09T08:06:17.603Z,272
2017-11-09T08:06:58.141Z,248
2017-11-09T08:07:38.672Z,220
2017-11-09T08:08:19.196Z,200
2017-11-09T08:08:59.739Z,184
2017-11-09T08:09:40.252Z,176
2017-11-09T08:10:20.779Z,200
2017-11-09T08:11:01.301Z,208
2017-11-09T08:11:41.931Z,216
2017-11-09T08:12:22.365Z,264
2017-11-09T08:13:02.890Z,300
2017-11-09T08:13:43.416Z,260
2017-11-09T08:14:23.937Z,244
2017-11-09T08:15:04.469Z,252
2017-11-09T08:15:45.005Z,252
2017-11-09T08:16:25.534Z,252
2017-11-09T08:17:06.061Z,260
2017-11-09T08:17:46.578Z,280
2017-11-09T08:18:27.117Z,284
2017-11-09T08:19:07.649Z,296
2017-11-09T08:19:48.181Z,276
2017-11-09T08:20:28.722Z,268
2017-11-09T08:21:09.249Z,296
2017-11-09T08:21:49.781Z,356
2017-11-09T08:22:30.305Z,380
2017-11-09T08:23:10.837Z,316
2017-11-09T08:23:51.361Z,296
2017-11-09T08:24:31.885Z,312
2017-11-09T08:25:12.411Z,288
2017-11-09T08:25:52.942Z,284
2017-11-09T08:26:33.476Z,288
2017-11-09T08:27:13.990Z,280
2017-11-09T08:27:54.514Z,276
2017-11-09T08:28:35.041Z,292
2017-11-09T08:29:15.576Z,320
2017-11-09T08:29:56.104Z,380
2017-11-09T08:30:36.636Z,484
2017-11-09T08:31:17.159Z,508
2017-11-09T08:31:57.697Z,480
2017-11-09T08:32:38.234Z,416
2017-11-09T08:33:18.738Z,396
2017-11-09T08:33:59.269Z,436
2017-11-09T08:34:39.795Z,456
2017-11-09T08:35:20.328Z,392
2017-11-09T08:36:00.857Z,332
2017-11-09T08:36:41.361Z,312
2017-11-09T08:37:21.895Z,308
2017-11-09T08:38:02.423Z,308
2017-11-09T08:38:42.960Z,296
2017-11-09T08:39:23.468Z,276
2017-11-09T08:40:04.007Z,316
2017-11-09T08:40:44.530Z,344
2017-11-09T08:41:25.052Z,372
2017-11-09T08:42:05.585Z,412
2017-11-09T08:42:46.118Z,444
2017-11-09T08:43:26.660Z,472
2017-11-09T08:44:07.200Z,464
2017-11-09T08:44:47.705Z,424
2017-11-09T08:45:28.220Z,424
2017-11-09T08:46:08.747Z,432
2017-11-09T08:46:49.295Z,472
2017-11-09T08:47:29.800Z,504
2017-11-09T08:48:10.337Z,540
2017-11-09T08:48:50.860Z,544
2017-11-09T08:49:31.406Z,484
2017-11-09T08:50:11.944Z,472
2017-11-09T08:50:52.475Z,456
2017-11-09T08:51:33.001Z,416
2017-11-09T08:52:13.519Z,416
2017-11-09T08:52:54.064Z,420
2017-11-09T08:53:34.598Z,396
2017-11-09T08:54:15.114Z,368
2017-11-09T08:54:55.621Z,388
2017-11-09T08:55:36.157Z,404
2017-11-09T08:56:16.681Z,436
2017-11-09T08:56:57.232Z,432
2017-11-09T08:57:37.741Z,464
2017-11-09T08:58:18.271Z,472
2017-11-09T08:58:58.808Z,468
2017-11-09T08:59:39.324Z,536
2017-11-09T09:00:19.824Z,644
2017-11-09T09:01:00.367Z,764
2017-11-09T09:01:40.917Z,840
2017-11-09T09:02:21.459Z,908
2017-11-09T09:03:01.987Z,956
2017-11-09T09:03:42.507Z,964
2017-11-09T09:04:23.034Z,996
2017-11-09T09:05:03.564Z,1032
2017-11-09T09:05:44.101Z,1064
2017-11-09T09:06:24.630Z,1092
2017-11-09T09:07:05.165Z,1084
2017-11-09T09:07:45.696Z,1184
2017-11-09T09:08:26.217Z,1264
2017-11-09T09:09:06.760Z,1376
2017-11-09T09:09:47.281Z,1484
2017-11-09T09:10:27.799Z,1492
2017-11-09T09:11:08.323Z,1420
2017-11-09T09:11:48.864Z,1288
2017-11-09T09:12:29.390Z,1208
2017-11-09T09:13:09.916Z,1228
2017-11-09T09:13:50.422Z,1348
2017-11-09T09:14:30.942Z,1420
2017-11-09T09:15:11.473Z,1484
2017-11-09T09:15:51.982Z,1496
2017-11-09T09:16:32.511Z,1384
2017-11-09T09:17:13.023Z,1272
2017-11-09T09:17:53.565Z,1140
2017-11-09T09:18:34.079Z,1216
2017-11-09T09:19:14.611Z,1324
2017-11-09T09:19:55.116Z,1444
2017-11-09T09:20:35.635Z,1600
2017-11-09T09:21:16.173Z,1660
2017-11-09T09:21:56.710Z,1592
2017-11-09T09:22:37.237Z,1248
2017-11-09T09:23:17.769Z,1052
2017-11-09T09:23:58.280Z,1144
2017-11-09T09:24:38.823Z,1068
2017-11-09T09:25:19.358Z,1008
2017-11-09T09:25:59.890Z,1052
2017-11-09T09:26:40.422Z,1176
2017-11-09T09:27:20.924Z,1368
2017-11-09T09:28:01.565Z,1620
2017-11-09T09:28:42.104Z,1824
2017-11-09T09:29:22.642Z,1640
2017-11-09T09:30:03.205Z,1568
2017-11-09T09:30:43.742Z,1684
2017-11-09T09:31:24.267Z,1776
2017-11-09T09:32:04.800Z,1748
2017-11-09T09:32:45.332Z,1784
2017-11-09T09:33:25.868Z,1812
2017-11-09T09:34:06.399Z,1912
2017-11-09T09:34:46.939Z,1932
2017-11-09T09:35:27.469Z,1916
2017-11-09T09:36:08.005Z,1900
2017-11-09T09:36:48.539Z,1908
2017-11-09T09:37:29.070Z,1888
2017-11-09T09:38:09.600Z,1832
2017-11-09T09:38:50.128Z,1756
2017-11-09T09:39:30.668Z,1748
2017-11-09T09:40:11.201Z,1700
2017-11-09T09:40:51.735Z,1608
2017-11-09T09:41:32.260Z,1580
2017-11-09T09:42:12.801Z,1564
2017-11-09T09:42:53.332Z,1496
2017-11-09T09:43:33.857Z,1500
2017-11-09T09:44:14.386Z,1508
2017-11-09T09:44:54.918Z,1728
2017-11-09T09:45:35.453Z,1792
2017-11-09T09:46:15.984Z,1864
2017-11-09T09:46:56.488Z,1708
2017-11-09T09:47:37.037Z,1696